sensor_id;sensor_type;location;lat;lon;timestamp;P1;durP1;ratioP1;P2;durP2;ratioP2
6661;SDS011;3367;48.714;8.994;2023-05-17T00:00:11;7.00;;;1.07;;
6661;SDS011;3367;48.714;8.994;2023-05-17T00:02:38;4.30;;;1.10;;
6661;SDS011;3367;48.714;8.994;2023-05-17T00:05:05;1.87;;;0.97;;
6661;SDS011;3367;48.714;8.994;2023-05-17T00:07:33;4.87;;;1.40;;
6661;SDS011;3367;48.714;8.994;2023-05-17T00:10:00;3.70;;;1.30;;
6661;SDS011;3367;48.714;8.994;2023-05-17T00:12:27;2.87;;;1.00;;
6661;SDS011;3367;48.714;8.994;2023-05-17T00:14:53;2.57;;;1.33;;
6661;SDS011;3367;48.714;8.994;2023-05-17T00:17:20;1.97;;;1.43;;
6661;SDS011;3367;48.714;8.994;2023-05-17T00:19:47;1.83;;;0.97;;
6661;SDS011;3367;48.714;8.994;2023-05-17T00:22:13;0.93;;;0.80;;
6661;SDS011;3367;48.714;8.994;2023-05-17T00:24:41;2.73;;;1.67;;
6661;SDS011;3367;48.714;8.994;2023-05-17T00:27:08;2.17;;;1.00;;
6661;SDS011;3367;48.714;8.994;2023-05-17T00:29:34;3.77;;;1.10;;
6661;SDS011;3367;48.714;8.994;2023-05-17T00:32:01;5.33;;;1.17;;
6661;SDS011;3367;48.714;8.994;2023-05-17T00:34:28;4.57;;;1.20;;
6661;SDS011;3367;48.714;8.994;2023-05-17T00:36:55;5.40;;;1.00;;
6661;SDS011;3367;48.714;8.994;2023-05-17T00:39:21;3.13;;;1.40;;
6661;SDS011;3367;48.714;8.994;2023-05-17T00:41:49;1.00;;;0.63;;
6661;SDS011;3367;48.714;8.994;2023-05-17T00:44:16;3.00;;;1.20;;
6661;SDS011;3367;48.714;8.994;2023-05-17T00:46:43;8.73;;;0.93;;
6661;SDS011;3367;48.714;8.994;2023-05-17T00:49:10;2.60;;;1.10;;
6661;SDS011;3367;48.714;8.994;2023-05-17T00:51:37;2.20;;;1.30;;
6661;SDS011;3367;48.714;8.994;2023-05-17T00:54:05;2.30;;;1.10;;
6661;SDS011;3367;48.714;8.994;2023-05-17T00:56:32;1.30;;;1.20;;
6661;SDS011;3367;48.714;8.994;2023-05-17T00:59:00;4.50;;;1.40;;
6661;SDS011;3367;48.714;8.994;2023-05-17T01:01:27;4.03;;;1.13;;
6661;SDS011;3367;48.714;8.994;2023-05-17T01:03:55;2.60;;;1.40;;
6661;SDS011;3367;48.714;8.994;2023-05-17T01:06:22;4.97;;;1.13;;
6661;SDS011;3367;48.714;8.994;2023-05-17T01:08:49;3.47;;;1.53;;
6661;SDS011;3367;48.714;8.994;2023-05-17T01:11:17;1.63;;;1.17;;
6661;SDS011;3367;48.714;8.994;2023-05-17T01:13:57;3.07;;;1.40;;
6661;SDS011;3367;48.714;8.994;2023-05-17T01:16:35;2.03;;;1.20;;
6661;SDS011;3367;48.714;8.994;2023-05-17T01:19:06;3.93;;;1.10;;
6661;SDS011;3367;48.714;8.994;2023-05-17T01:21:46;4.30;;;1.07;;
6661;SDS011;3367;48.714;8.994;2023-05-17T01:24:24;4.70;;;1.50;;
6661;SDS011;3367;48.714;8.994;2023-05-17T01:26:55;3.67;;;1.20;;
6661;SDS011;3367;48.714;8.994;2023-05-17T01:32:53;2.73;;;0.90;;
6661;SDS011;3367;48.714;8.994;2023-05-17T01:35:21;3.83;;;1.30;;
6661;SDS011;3367;48.714;8.994;2023-05-17T01:37:48;3.00;;;1.37;;
6661;SDS011;3367;48.714;8.994;2023-05-17T01:40:15;6.37;;;1.37;;
6661;SDS011;3367;48.714;8.994;2023-05-17T01:42:44;2.23;;;0.80;;
6661;SDS011;3367;48.714;8.994;2023-05-17T01:45:15;2.97;;;1.33;;
6661;SDS011;3367;48.714;8.994;2023-05-17T01:47:47;2.40;;;1.00;;
6661;SDS011;3367;48.714;8.994;2023-05-17T01:50:26;3.63;;;1.13;;
6661;SDS011;3367;48.714;8.994;2023-05-17T01:52:55;3.20;;;0.97;;
6661;SDS011;3367;48.714;8.994;2023-05-17T01:55:29;1.10;;;0.87;;
6661;SDS011;3367;48.714;8.994;2023-05-17T01:58:07;1.80;;;1.27;;
6661;SDS011;3367;48.714;8.994;2023-05-17T02:00:36;4.47;;;1.13;;
6661;SDS011;3367;48.714;8.994;2023-05-17T02:03:04;9.93;;;1.63;;
6661;SDS011;3367;48.714;8.994;2023-05-17T02:05:31;3.73;;;0.80;;
6661;SDS011;3367;48.714;8.994;2023-05-17T02:07:58;1.73;;;1.17;;
6661;SDS011;3367;48.714;8.994;2023-05-17T02:10:24;4.90;;;1.10;;
6661;SDS011;3367;48.714;8.994;2023-05-17T02:12:51;4.80;;;1.20;;
6661;SDS011;3367;48.714;8.994;2023-05-17T02:15:19;4.43;;;1.40;;
6661;SDS011;3367;48.714;8.994;2023-05-17T02:17:46;3.50;;;1.20;;
6661;SDS011;3367;48.714;8.994;2023-05-17T02:20:12;1.63;;;1.00;;
6661;SDS011;3367;48.714;8.994;2023-05-17T02:22:39;2.83;;;1.20;;
6661;SDS011;3367;48.714;8.994;2023-05-17T02:25:06;2.53;;;1.30;;
6661;SDS011;3367;48.714;8.994;2023-05-17T02:27:33;7.43;;;3.13;;
6661;SDS011;3367;48.714;8.994;2023-05-17T02:30:00;1.63;;;1.13;;
6661;SDS011;3367;48.714;8.994;2023-05-17T02:32:29;4.40;;;1.23;;
6661;SDS011;3367;48.714;8.994;2023-05-17T02:34:56;1.67;;;1.50;;
6661;SDS011;3367;48.714;8.994;2023-05-17T02:37:23;1.77;;;1.10;;
6661;SDS011;3367;48.714;8.994;2023-05-17T02:39:50;1.30;;;1.20;;
6661;SDS011;3367;48.714;8.994;2023-05-17T02:42:17;2.47;;;1.30;;
6661;SDS011;3367;48.714;8.994;2023-05-17T02:44:44;2.47;;;1.73;;
6661;SDS011;3367;48.714;8.994;2023-05-17T02:47:12;2.50;;;1.10;;
6661;SDS011;3367;48.714;8.994;2023-05-17T02:49:40;1.40;;;1.10;;
6661;SDS011;3367;48.714;8.994;2023-05-17T02:52:07;2.43;;;1.50;;
6661;SDS011;3367;48.714;8.994;2023-05-17T02:54:34;2.80;;;1.00;;
6661;SDS011;3367;48.714;8.994;2023-05-17T02:57:01;2.13;;;1.20;;
6661;SDS011;3367;48.714;8.994;2023-05-17T02:59:28;4.70;;;1.23;;
6661;SDS011;3367;48.714;8.994;2023-05-17T03:01:55;3.30;;;1.13;;
6661;SDS011;3367;48.714;8.994;2023-05-17T03:04:21;1.47;;;0.97;;
6661;SDS011;3367;48.714;8.994;2023-05-17T03:06:49;5.27;;;1.10;;
6661;SDS011;3367;48.714;8.994;2023-05-17T03:09:16;1.20;;;1.10;;
6661;SDS011;3367;48.714;8.994;2023-05-17T03:11:43;1.60;;;1.50;;
6661;SDS011;3367;48.714;8.994;2023-05-17T03:14:10;3.43;;;1.00;;
6661;SDS011;3367;48.714;8.994;2023-05-17T03:16:36;6.50;;;1.67;;
6661;SDS011;3367;48.714;8.994;2023-05-17T03:19:03;3.50;;;1.40;;
6661;SDS011;3367;48.714;8.994;2023-05-17T03:21:30;1.33;;;1.23;;
6661;SDS011;3367;48.714;8.994;2023-05-17T03:23:57;2.50;;;1.23;;
6661;SDS011;3367;48.714;8.994;2023-05-17T03:26:24;1.80;;;1.17;;
6661;SDS011;3367;48.714;8.994;2023-05-17T03:28:51;1.30;;;0.97;;
6661;SDS011;3367;48.714;8.994;2023-05-17T03:31:18;4.10;;;1.40;;
6661;SDS011;3367;48.714;8.994;2023-05-17T03:33:45;1.00;;;0.90;;
6661;SDS011;3367;48.714;8.994;2023-05-17T03:36:12;3.87;;;1.40;;
6661;SDS011;3367;48.714;8.994;2023-05-17T03:38:39;1.33;;;1.10;;
6661;SDS011;3367;48.714;8.994;2023-05-17T03:41:07;3.27;;;1.40;;
6661;SDS011;3367;48.714;8.994;2023-05-17T03:43:34;1.73;;;1.30;;
6661;SDS011;3367;48.714;8.994;2023-05-17T03:46:00;3.43;;;1.40;;
6661;SDS011;3367;48.714;8.994;2023-05-17T03:48:27;5.67;;;2.20;;
6661;SDS011;3367;48.714;8.994;2023-05-17T03:50:54;1.43;;;1.20;;
6661;SDS011;3367;48.714;8.994;2023-05-17T03:53:20;3.10;;;1.37;;
6661;SDS011;3367;48.714;8.994;2023-05-17T03:55:47;3.30;;;2.00;;
6661;SDS011;3367;48.714;8.994;2023-05-17T03:58:15;2.57;;;1.20;;
6661;SDS011;3367;48.714;8.994;2023-05-17T04:00:42;5.50;;;1.60;;
6661;SDS011;3367;48.714;8.994;2023-05-17T04:03:08;3.10;;;1.60;;
6661;SDS011;3367;48.714;8.994;2023-05-17T04:05:37;1.73;;;1.63;;
6661;SDS011;3367;48.714;8.994;2023-05-17T04:08:04;5.90;;;1.80;;
6661;SDS011;3367;48.714;8.994;2023-05-17T04:10:31;2.50;;;1.40;;
6661;SDS011;3367;48.714;8.994;2023-05-17T04:12:58;7.97;;;1.83;;
6661;SDS011;3367;48.714;8.994;2023-05-17T04:15:26;4.27;;;2.00;;
6661;SDS011;3367;48.714;8.994;2023-05-17T04:17:53;12.40;;;1.97;;
6661;SDS011;3367;48.714;8.994;2023-05-17T04:20:20;2.33;;;1.70;;
6661;SDS011;3367;48.714;8.994;2023-05-17T04:22:46;2.40;;;1.60;;
6661;SDS011;3367;48.714;8.994;2023-05-17T04:25:13;1.50;;;1.40;;
6661;SDS011;3367;48.714;8.994;2023-05-17T04:27:40;3.83;;;1.70;;
6661;SDS011;3367;48.714;8.994;2023-05-17T04:30:07;1.63;;;1.20;;
6661;SDS011;3367;48.714;8.994;2023-05-17T04:32:36;4.20;;;1.60;;
6661;SDS011;3367;48.714;8.994;2023-05-17T04:35:03;1.60;;;1.50;;
6661;SDS011;3367;48.714;8.994;2023-05-17T04:37:30;6.07;;;1.30;;
6661;SDS011;3367;48.714;8.994;2023-05-17T04:39:57;2.17;;;1.10;;
6661;SDS011;3367;48.714;8.994;2023-05-17T04:42:23;1.40;;;1.20;;
6661;SDS011;3367;48.714;8.994;2023-05-17T04:44:50;5.67;;;1.53;;
6661;SDS011;3367;48.714;8.994;2023-05-17T04:47:17;4.97;;;1.40;;
6661;SDS011;3367;48.714;8.994;2023-05-17T04:49:45;1.83;;;1.27;;
6661;SDS011;3367;48.714;8.994;2023-05-17T04:52:12;3.50;;;1.40;;
6661;SDS011;3367;48.714;8.994;2023-05-17T04:54:39;2.30;;;1.17;;
6661;SDS011;3367;48.714;8.994;2023-05-17T04:57:06;2.80;;;1.70;;
6661;SDS011;3367;48.714;8.994;2023-05-17T04:59:32;3.00;;;1.20;;
6661;SDS011;3367;48.714;8.994;2023-05-17T05:01:59;4.90;;;2.20;;
6661;SDS011;3367;48.714;8.994;2023-05-17T05:04:26;5.37;;;1.40;;
6661;SDS011;3367;48.714;8.994;2023-05-17T05:06:54;8.23;;;2.17;;
6661;SDS011;3367;48.714;8.994;2023-05-17T05:09:20;1.40;;;1.30;;
6661;SDS011;3367;48.714;8.994;2023-05-17T05:11:47;2.47;;;1.77;;
6661;SDS011;3367;48.714;8.994;2023-05-17T05:14:14;1.57;;;1.43;;
6661;SDS011;3367;48.714;8.994;2023-05-17T05:16:40;4.83;;;1.43;;
6661;SDS011;3367;48.714;8.994;2023-05-17T05:19:07;3.27;;;1.50;;
6661;SDS011;3367;48.714;8.994;2023-05-17T05:21:34;3.63;;;1.43;;
6661;SDS011;3367;48.714;8.994;2023-05-17T05:24:02;2.40;;;1.37;;
6661;SDS011;3367;48.714;8.994;2023-05-17T05:26:29;2.73;;;1.53;;
6661;SDS011;3367;48.714;8.994;2023-05-17T05:28:55;3.10;;;1.83;;
6661;SDS011;3367;48.714;8.994;2023-05-17T05:31:22;2.20;;;1.10;;
6661;SDS011;3367;48.714;8.994;2023-05-17T05:33:49;1.20;;;1.10;;
6661;SDS011;3367;48.714;8.994;2023-05-17T05:36:16;2.20;;;1.57;;
6661;SDS011;3367;48.714;8.994;2023-05-17T05:38:42;5.03;;;1.33;;
6661;SDS011;3367;48.714;8.994;2023-05-17T05:41:10;3.70;;;1.50;;
6661;SDS011;3367;48.714;8.994;2023-05-17T05:43:37;2.17;;;1.90;;
6661;SDS011;3367;48.714;8.994;2023-05-17T05:46:04;2.60;;;1.37;;
6661;SDS011;3367;48.714;8.994;2023-05-17T05:48:32;8.37;;;1.90;;
6661;SDS011;3367;48.714;8.994;2023-05-17T05:50:58;5.20;;;1.90;;
6661;SDS011;3367;48.714;8.994;2023-05-17T05:53:25;3.37;;;1.30;;
6661;SDS011;3367;48.714;8.994;2023-05-17T05:55:51;4.63;;;1.20;;
6661;SDS011;3367;48.714;8.994;2023-05-17T05:58:19;3.90;;;1.50;;
6661;SDS011;3367;48.714;8.994;2023-05-17T06:00:46;4.50;;;1.60;;
6661;SDS011;3367;48.714;8.994;2023-05-17T06:03:13;3.33;;;1.20;;
6661;SDS011;3367;48.714;8.994;2023-05-17T06:05:40;7.13;;;1.77;;
6661;SDS011;3367;48.714;8.994;2023-05-17T06:08:07;1.47;;;1.20;;
6661;SDS011;3367;48.714;8.994;2023-05-17T06:10:33;3.00;;;1.50;;
6661;SDS011;3367;48.714;8.994;2023-05-17T06:13:00;3.33;;;1.53;;
6661;SDS011;3367;48.714;8.994;2023-05-17T06:15:29;4.60;;;1.50;;
6661;SDS011;3367;48.714;8.994;2023-05-17T06:17:56;1.83;;;1.10;;
6661;SDS011;3367;48.714;8.994;2023-05-17T06:20:23;3.67;;;2.10;;
6661;SDS011;3367;48.714;8.994;2023-05-17T06:22:50;3.80;;;1.77;;
6661;SDS011;3367;48.714;8.994;2023-05-17T06:25:16;4.60;;;1.97;;
6661;SDS011;3367;48.714;8.994;2023-05-17T06:27:43;6.47;;;2.30;;
6661;SDS011;3367;48.714;8.994;2023-05-17T06:30:10;5.50;;;1.80;;
6661;SDS011;3367;48.714;8.994;2023-05-17T06:32:39;2.30;;;1.80;;
6661;SDS011;3367;48.714;8.994;2023-05-17T06:35:07;4.43;;;1.50;;
6661;SDS011;3367;48.714;8.994;2023-05-17T06:37:35;4.27;;;1.80;;
6661;SDS011;3367;48.714;8.994;2023-05-17T06:40:01;3.20;;;2.00;;
6661;SDS011;3367;48.714;8.994;2023-05-17T06:42:30;2.23;;;1.50;;
6661;SDS011;3367;48.714;8.994;2023-05-17T06:44:56;5.47;;;1.90;;
6661;SDS011;3367;48.714;8.994;2023-05-17T06:47:23;4.40;;;1.90;;
6661;SDS011;3367;48.714;8.994;2023-05-17T06:49:51;3.67;;;1.60;;
6661;SDS011;3367;48.714;8.994;2023-05-17T06:52:18;2.83;;;1.47;;
6661;SDS011;3367;48.714;8.994;2023-05-17T06:54:44;7.07;;;2.60;;
6661;SDS011;3367;48.714;8.994;2023-05-17T06:57:11;2.70;;;1.87;;
6661;SDS011;3367;48.714;8.994;2023-05-17T06:59:38;4.77;;;2.37;;
6661;SDS011;3367;48.714;8.994;2023-05-17T07:02:05;3.60;;;2.03;;
6661;SDS011;3367;48.714;8.994;2023-05-17T07:04:31;2.67;;;2.00;;
6661;SDS011;3367;48.714;8.994;2023-05-17T07:06:59;3.00;;;1.93;;
6661;SDS011;3367;48.714;8.994;2023-05-17T07:09:26;6.33;;;2.03;;
6661;SDS011;3367;48.714;8.994;2023-05-17T07:11:53;8.33;;;2.50;;
6661;SDS011;3367;48.714;8.994;2023-05-17T07:14:19;5.47;;;2.30;;
6661;SDS011;3367;48.714;8.994;2023-05-17T07:16:46;6.20;;;2.13;;
6661;SDS011;3367;48.714;8.994;2023-05-17T07:19:13;5.57;;;2.40;;
6661;SDS011;3367;48.714;8.994;2023-05-17T07:21:40;5.13;;;2.47;;
6661;SDS011;3367;48.714;8.994;2023-05-17T07:24:08;4.47;;;2.37;;
6661;SDS011;3367;48.714;8.994;2023-05-17T07:26:34;4.20;;;2.10;;
6661;SDS011;3367;48.714;8.994;2023-05-17T07:29:01;6.60;;;3.03;;
6661;SDS011;3367;48.714;8.994;2023-05-17T07:31:28;14.83;;;3.00;;
6661;SDS011;3367;48.714;8.994;2023-05-17T07:33:54;3.13;;;2.27;;
6661;SDS011;3367;48.714;8.994;2023-05-17T07:36:21;5.77;;;2.97;;
6661;SDS011;3367;48.714;8.994;2023-05-17T07:38:48;5.57;;;2.40;;
6661;SDS011;3367;48.714;8.994;2023-05-17T07:41:16;7.97;;;2.20;;
6661;SDS011;3367;48.714;8.994;2023-05-17T07:43:46;9.13;;;3.37;;
6661;SDS011;3367;48.714;8.994;2023-05-17T07:46:12;3.17;;;2.40;;
6661;SDS011;3367;48.714;8.994;2023-05-17T07:48:39;2.57;;;2.37;;
6661;SDS011;3367;48.714;8.994;2023-05-17T07:51:06;4.07;;;2.53;;
6661;SDS011;3367;48.714;8.994;2023-05-17T07:53:33;3.80;;;2.80;;
6661;SDS011;3367;48.714;8.994;2023-05-17T07:55:59;9.20;;;3.03;;
6661;SDS011;3367;48.714;8.994;2023-05-17T07:58:27;8.03;;;3.50;;
6661;SDS011;3367;48.714;8.994;2023-05-17T08:00:54;4.10;;;2.60;;
6661;SDS011;3367;48.714;8.994;2023-05-17T08:03:21;5.83;;;2.70;;
6661;SDS011;3367;48.714;8.994;2023-05-17T08:05:48;5.83;;;3.30;;
6661;SDS011;3367;48.714;8.994;2023-05-17T08:08:14;7.50;;;3.63;;
6661;SDS011;3367;48.714;8.994;2023-05-17T08:10:41;6.57;;;3.53;;
6661;SDS011;3367;48.714;8.994;2023-05-17T08:13:08;6.30;;;3.30;;
6661;SDS011;3367;48.714;8.994;2023-05-17T08:15:36;5.83;;;3.30;;
6661;SDS011;3367;48.714;8.994;2023-05-17T08:18:02;5.73;;;3.53;;
6661;SDS011;3367;48.714;8.994;2023-05-17T08:20:29;5.40;;;3.50;;
6661;SDS011;3367;48.714;8.994;2023-05-17T08:22:56;4.87;;;3.13;;
6661;SDS011;3367;48.714;8.994;2023-05-17T08:25:23;6.57;;;2.90;;
6661;SDS011;3367;48.714;8.994;2023-05-17T08:27:50;6.27;;;3.07;;
6661;SDS011;3367;48.714;8.994;2023-05-17T08:30:17;4.07;;;2.70;;
6661;SDS011;3367;48.714;8.994;2023-05-17T08:32:45;6.20;;;2.90;;
6661;SDS011;3367;48.714;8.994;2023-05-17T08:35:13;4.40;;;2.93;;
6661;SDS011;3367;48.714;8.994;2023-05-17T08:37:39;8.83;;;3.03;;
6661;SDS011;3367;48.714;8.994;2023-05-17T08:40:07;7.90;;;3.30;;
6661;SDS011;3367;48.714;8.994;2023-05-17T08:42:35;4.20;;;3.27;;
6661;SDS011;3367;48.714;8.994;2023-05-17T08:45:02;6.53;;;3.23;;
6661;SDS011;3367;48.714;8.994;2023-05-17T08:47:33;6.80;;;3.30;;
6661;SDS011;3367;48.714;8.994;2023-05-17T08:50:03;5.67;;;3.50;;
6661;SDS011;3367;48.714;8.994;2023-05-17T08:52:31;4.67;;;3.23;;
6661;SDS011;3367;48.714;8.994;2023-05-17T08:54:59;3.07;;;2.53;;
6661;SDS011;3367;48.714;8.994;2023-05-17T08:57:30;4.40;;;3.40;;
6661;SDS011;3367;48.714;8.994;2023-05-17T09:00:00;4.77;;;2.87;;
6661;SDS011;3367;48.714;8.994;2023-05-17T09:02:28;3.63;;;2.80;;
6661;SDS011;3367;48.714;8.994;2023-05-17T09:04:56;4.63;;;2.40;;
6661;SDS011;3367;48.714;8.994;2023-05-17T09:07:25;6.37;;;3.20;;
6661;SDS011;3367;48.714;8.994;2023-05-17T09:09:52;6.60;;;2.37;;
6661;SDS011;3367;48.714;8.994;2023-05-17T09:12:19;4.97;;;2.70;;
6661;SDS011;3367;48.714;8.994;2023-05-17T09:14:46;7.67;;;3.13;;
6661;SDS011;3367;48.714;8.994;2023-05-17T09:17:13;4.57;;;3.07;;
6661;SDS011;3367;48.714;8.994;2023-05-17T09:19:44;5.03;;;3.03;;
6661;SDS011;3367;48.714;8.994;2023-05-17T09:22:12;8.93;;;2.70;;
6661;SDS011;3367;48.714;8.994;2023-05-17T09:24:41;6.00;;;2.20;;
6661;SDS011;3367;48.714;8.994;2023-05-17T09:27:08;3.83;;;2.77;;
6661;SDS011;3367;48.714;8.994;2023-05-17T09:29:40;2.63;;;2.43;;
6661;SDS011;3367;48.714;8.994;2023-05-17T09:32:13;4.10;;;2.40;;
6661;SDS011;3367;48.714;8.994;2023-05-17T09:34:40;6.07;;;1.97;;
6661;SDS011;3367;48.714;8.994;2023-05-17T09:37:11;3.67;;;2.40;;
6661;SDS011;3367;48.714;8.994;2023-05-17T09:39:39;9.10;;;3.23;;
6661;SDS011;3367;48.714;8.994;2023-05-17T09:42:07;4.30;;;2.50;;
6661;SDS011;3367;48.714;8.994;2023-05-17T09:44:44;7.13;;;2.83;;
6661;SDS011;3367;48.714;8.994;2023-05-17T09:47:20;3.80;;;2.17;;
6661;SDS011;3367;48.714;8.994;2023-05-17T09:49:50;4.73;;;2.40;;
6661;SDS011;3367;48.714;8.994;2023-05-17T09:52:17;4.43;;;2.40;;
6661;SDS011;3367;48.714;8.994;2023-05-17T09:54:51;4.30;;;2.50;;
6661;SDS011;3367;48.714;8.994;2023-05-17T09:57:20;5.27;;;3.27;;
6661;SDS011;3367;48.714;8.994;2023-05-17T09:59:47;2.93;;;2.43;;
6661;SDS011;3367;48.714;8.994;2023-05-17T10:02:16;3.83;;;3.00;;
6661;SDS011;3367;48.714;8.994;2023-05-17T10:04:47;4.50;;;2.33;;
6661;SDS011;3367;48.714;8.994;2023-05-17T10:07:16;3.90;;;3.27;;
6661;SDS011;3367;48.714;8.994;2023-05-17T10:09:45;4.97;;;2.77;;
6661;SDS011;3367;48.714;8.994;2023-05-17T10:12:14;3.87;;;2.90;;
6661;SDS011;3367;48.714;8.994;2023-05-17T10:14:44;10.40;;;3.10;;
6661;SDS011;3367;48.714;8.994;2023-05-17T10:17:12;4.13;;;2.70;;
6661;SDS011;3367;48.714;8.994;2023-05-17T10:19:39;4.30;;;2.97;;
6661;SDS011;3367;48.714;8.994;2023-05-17T10:22:06;5.30;;;2.83;;
6661;SDS011;3367;48.714;8.994;2023-05-17T10:24:34;2.43;;;2.20;;
6661;SDS011;3367;48.714;8.994;2023-05-17T10:27:02;3.53;;;2.27;;
6661;SDS011;3367;48.714;8.994;2023-05-17T10:29:30;3.83;;;2.60;;
6661;SDS011;3367;48.714;8.994;2023-05-17T10:32:00;5.97;;;2.77;;
6661;SDS011;3367;48.714;8.994;2023-05-17T10:34:29;5.77;;;2.87;;
6661;SDS011;3367;48.714;8.994;2023-05-17T10:36:58;5.23;;;3.20;;
6661;SDS011;3367;48.714;8.994;2023-05-17T10:39:27;4.03;;;2.43;;
6661;SDS011;3367;48.714;8.994;2023-05-17T10:41:53;6.53;;;2.50;;
6661;SDS011;3367;48.714;8.994;2023-05-17T10:44:22;3.90;;;3.10;;
6661;SDS011;3367;48.714;8.994;2023-05-17T10:46:51;5.73;;;2.53;;
6661;SDS011;3367;48.714;8.994;2023-05-17T10:49:21;4.50;;;2.90;;
6661;SDS011;3367;48.714;8.994;2023-05-17T10:51:51;3.93;;;2.53;;
6661;SDS011;3367;48.714;8.994;2023-05-17T10:54:18;6.67;;;3.50;;
6661;SDS011;3367;48.714;8.994;2023-05-17T10:56:48;7.67;;;3.63;;
6661;SDS011;3367;48.714;8.994;2023-05-17T10:59:17;8.23;;;3.67;;
6661;SDS011;3367;48.714;8.994;2023-05-17T11:01:51;6.90;;;3.27;;
6661;SDS011;3367;48.714;8.994;2023-05-17T11:04:22;5.60;;;3.00;;
6661;SDS011;3367;48.714;8.994;2023-05-17T11:06:51;4.37;;;2.73;;
6661;SDS011;3367;48.714;8.994;2023-05-17T11:09:20;3.57;;;2.60;;
6661;SDS011;3367;48.714;8.994;2023-05-17T11:12:05;5.13;;;3.33;;
6661;SDS011;3367;48.714;8.994;2023-05-17T11:14:42;5.20;;;3.03;;
6661;SDS011;3367;48.714;8.994;2023-05-17T11:17:12;5.43;;;2.83;;
6661;SDS011;3367;48.714;8.994;2023-05-17T11:19:48;3.17;;;2.73;;
6661;SDS011;3367;48.714;8.994;2023-05-17T11:22:21;4.37;;;2.83;;
6661;SDS011;3367;48.714;8.994;2023-05-17T11:24:49;5.80;;;3.60;;
6661;SDS011;3367;48.714;8.994;2023-05-17T11:27:17;7.13;;;2.60;;
6661;SDS011;3367;48.714;8.994;2023-05-17T11:29:45;4.10;;;2.70;;
6661;SDS011;3367;48.714;8.994;2023-05-17T11:32:12;6.33;;;2.50;;
6661;SDS011;3367;48.714;8.994;2023-05-17T11:34:39;10.87;;;3.40;;
6661;SDS011;3367;48.714;8.994;2023-05-17T11:37:10;6.33;;;3.03;;
6661;SDS011;3367;48.714;8.994;2023-05-17T11:39:37;5.23;;;2.97;;
6661;SDS011;3367;48.714;8.994;2023-05-17T11:42:29;11.60;;;3.30;;
6661;SDS011;3367;48.714;8.994;2023-05-17T11:44:57;4.27;;;2.60;;
6661;SDS011;3367;48.714;8.994;2023-05-17T11:47:26;4.90;;;3.50;;
6661;SDS011;3367;48.714;8.994;2023-05-17T11:49:53;9.17;;;3.03;;
6661;SDS011;3367;48.714;8.994;2023-05-17T11:52:21;7.73;;;2.80;;
6661;SDS011;3367;48.714;8.994;2023-05-17T11:54:47;9.03;;;3.60;;
6661;SDS011;3367;48.714;8.994;2023-05-17T11:57:16;7.90;;;3.17;;
6661;SDS011;3367;48.714;8.994;2023-05-17T11:59:45;5.17;;;3.13;;
6661;SDS011;3367;48.714;8.994;2023-05-17T12:02:24;4.60;;;2.83;;
6661;SDS011;3367;48.714;8.994;2023-05-17T12:04:52;7.13;;;3.70;;
6661;SDS011;3367;48.714;8.994;2023-05-17T12:07:18;8.10;;;3.70;;
6661;SDS011;3367;48.714;8.994;2023-05-17T12:09:46;8.53;;;3.10;;
6661;SDS011;3367;48.714;8.994;2023-05-17T12:12:13;6.07;;;3.20;;
6661;SDS011;3367;48.714;8.994;2023-05-17T12:14:42;6.83;;;3.17;;
6661;SDS011;3367;48.714;8.994;2023-05-17T12:17:10;4.87;;;2.53;;
6661;SDS011;3367;48.714;8.994;2023-05-17T12:19:41;6.40;;;2.90;;
6661;SDS011;3367;48.714;8.994;2023-05-17T12:22:08;5.73;;;2.20;;
6661;SDS011;3367;48.714;8.994;2023-05-17T12:24:36;4.33;;;2.70;;
6661;SDS011;3367;48.714;8.994;2023-05-17T12:27:03;7.13;;;3.10;;
6661;SDS011;3367;48.714;8.994;2023-05-17T12:29:30;4.30;;;2.90;;
6661;SDS011;3367;48.714;8.994;2023-05-17T12:31:59;6.50;;;2.83;;
6661;SDS011;3367;48.714;8.994;2023-05-17T12:34:26;4.03;;;2.70;;
6661;SDS011;3367;48.714;8.994;2023-05-17T12:36:54;2.80;;;2.13;;
6661;SDS011;3367;48.714;8.994;2023-05-17T12:39:21;4.33;;;2.80;;
6661;SDS011;3367;48.714;8.994;2023-05-17T12:41:49;4.07;;;2.70;;
6661;SDS011;3367;48.714;8.994;2023-05-17T12:44:16;4.87;;;2.70;;
6661;SDS011;3367;48.714;8.994;2023-05-17T12:46:44;5.00;;;2.90;;
6661;SDS011;3367;48.714;8.994;2023-05-17T12:49:15;6.30;;;3.10;;
6661;SDS011;3367;48.714;8.994;2023-05-17T12:51:43;8.83;;;2.77;;
6661;SDS011;3367;48.714;8.994;2023-05-17T12:54:10;5.67;;;3.00;;
6661;SDS011;3367;48.714;8.994;2023-05-17T12:56:40;4.37;;;2.77;;
6661;SDS011;3367;48.714;8.994;2023-05-17T12:59:10;7.43;;;3.40;;
6661;SDS011;3367;48.714;8.994;2023-05-17T13:01:38;5.37;;;2.70;;
6661;SDS011;3367;48.714;8.994;2023-05-17T13:04:07;3.97;;;2.60;;
6661;SDS011;3367;48.714;8.994;2023-05-17T13:06:45;6.63;;;3.17;;
6661;SDS011;3367;48.714;8.994;2023-05-17T13:09:13;5.20;;;3.53;;
6661;SDS011;3367;48.714;8.994;2023-05-17T13:11:42;5.17;;;3.07;;
6661;SDS011;3367;48.714;8.994;2023-05-17T13:14:09;4.90;;;3.13;;
6661;SDS011;3367;48.714;8.994;2023-05-17T13:16:37;6.90;;;3.87;;
6661;SDS011;3367;48.714;8.994;2023-05-17T13:19:10;6.63;;;3.57;;
6661;SDS011;3367;48.714;8.994;2023-05-17T13:21:38;5.80;;;2.63;;
6661;SDS011;3367;48.714;8.994;2023-05-17T13:24:07;9.90;;;3.57;;
6661;SDS011;3367;48.714;8.994;2023-05-17T13:26:34;5.00;;;3.00;;
6661;SDS011;3367;48.714;8.994;2023-05-17T13:29:01;4.03;;;2.60;;
6661;SDS011;3367;48.714;8.994;2023-05-17T13:31:28;5.10;;;2.70;;
6661;SDS011;3367;48.714;8.994;2023-05-17T13:33:54;7.80;;;3.13;;
6661;SDS011;3367;48.714;8.994;2023-05-17T13:36:21;11.33;;;3.33;;
6661;SDS011;3367;48.714;8.994;2023-05-17T13:38:48;3.07;;;2.50;;
6661;SDS011;3367;48.714;8.994;2023-05-17T13:41:16;6.00;;;3.30;;
6661;SDS011;3367;48.714;8.994;2023-05-17T13:43:42;3.30;;;2.97;;
6661;SDS011;3367;48.714;8.994;2023-05-17T13:46:10;5.03;;;3.07;;
6661;SDS011;3367;48.714;8.994;2023-05-17T13:48:36;8.23;;;3.70;;
6661;SDS011;3367;48.714;8.994;2023-05-17T13:51:03;2.70;;;2.50;;
6661;SDS011;3367;48.714;8.994;2023-05-17T13:53:30;6.23;;;3.40;;
6661;SDS011;3367;48.714;8.994;2023-05-17T13:55:57;4.20;;;2.67;;
6661;SDS011;3367;48.714;8.994;2023-05-17T13:58:25;3.60;;;2.90;;
6661;SDS011;3367;48.714;8.994;2023-05-17T14:00:52;6.83;;;3.50;;
6661;SDS011;3367;48.714;8.994;2023-05-17T14:03:19;5.23;;;2.70;;
6661;SDS011;3367;48.714;8.994;2023-05-17T14:05:45;4.30;;;2.83;;
6661;SDS011;3367;48.714;8.994;2023-05-17T14:08:14;4.27;;;3.40;;
6661;SDS011;3367;48.714;8.994;2023-05-17T14:10:41;4.40;;;3.03;;
6661;SDS011;3367;48.714;8.994;2023-05-17T14:13:08;4.13;;;2.47;;
6661;SDS011;3367;48.714;8.994;2023-05-17T14:15:37;6.87;;;3.07;;
6661;SDS011;3367;48.714;8.994;2023-05-17T14:18:05;6.17;;;3.30;;
6661;SDS011;3367;48.714;8.994;2023-05-17T14:20:33;3.87;;;2.90;;
6661;SDS011;3367;48.714;8.994;2023-05-17T14:23:00;8.10;;;2.67;;
6661;SDS011;3367;48.714;8.994;2023-05-17T14:25:27;8.53;;;3.30;;
6661;SDS011;3367;48.714;8.994;2023-05-17T14:27:53;5.43;;;2.90;;
6661;SDS011;3367;48.714;8.994;2023-05-17T14:30:20;5.40;;;3.20;;
6661;SDS011;3367;48.714;8.994;2023-05-17T14:32:49;7.10;;;2.80;;
6661;SDS011;3367;48.714;8.994;2023-05-17T14:35:15;4.00;;;3.20;;
6661;SDS011;3367;48.714;8.994;2023-05-17T14:37:42;4.50;;;2.70;;
6661;SDS011;3367;48.714;8.994;2023-05-17T14:40:09;5.63;;;3.03;;
6661;SDS011;3367;48.714;8.994;2023-05-17T14:42:37;6.03;;;3.40;;
6661;SDS011;3367;48.714;8.994;2023-05-17T14:45:04;7.70;;;2.63;;
6661;SDS011;3367;48.714;8.994;2023-05-17T14:47:32;4.63;;;3.07;;
6661;SDS011;3367;48.714;8.994;2023-05-17T14:50:01;6.47;;;3.20;;
6661;SDS011;3367;48.714;8.994;2023-05-17T14:52:27;7.33;;;2.77;;
6661;SDS011;3367;48.714;8.994;2023-05-17T14:54:54;5.00;;;3.10;;
6661;SDS011;3367;48.714;8.994;2023-05-17T14:57:21;4.63;;;3.17;;
6661;SDS011;3367;48.714;8.994;2023-05-17T14:59:48;5.90;;;2.90;;
6661;SDS011;3367;48.714;8.994;2023-05-17T15:02:15;5.20;;;2.47;;
6661;SDS011;3367;48.714;8.994;2023-05-17T15:04:42;4.53;;;2.50;;
6661;SDS011;3367;48.714;8.994;2023-05-17T15:07:10;5.90;;;3.87;;
6661;SDS011;3367;48.714;8.994;2023-05-17T15:09:38;3.70;;;2.70;;
6661;SDS011;3367;48.714;8.994;2023-05-17T15:12:06;5.33;;;2.60;;
6661;SDS011;3367;48.714;8.994;2023-05-17T15:14:33;4.70;;;2.90;;
6661;SDS011;3367;48.714;8.994;2023-05-17T15:17:00;10.53;;;2.77;;
6661;SDS011;3367;48.714;8.994;2023-05-17T15:19:28;5.03;;;3.07;;
6661;SDS011;3367;48.714;8.994;2023-05-17T15:21:55;8.70;;;3.60;;